Keyes, OK (73947)

8:57 PM CST on December 22, 2014 (GMT -0600)
Guymon Municipal | Change Station
CLOSE
Current Station
Airport
Location: Guymon,
Elevation: 3123 ft
Nearby Weather Stations

Elev 3123 ft 36.68 °N, 101.51 °W | Updated 1 hour ago

Mostly Cloudy
Mostly Cloudy
39 °F
Feels Like 32 °F
N
10
Wind Variable Wind from WSW

Today
High -- | Low -- °F
--% Chance of Precip.
Yesterday
High -- | Low -- °F
Precip. -- in
7:58 AM 5:36 PM
New Moon, 2% visible
Pressure 29.73 in
Visibility 10.0 miles
Clouds Mostly Cloudy 7000 ft
Windchill 32 °F
Dew Point 27 °F
Humidity 62%
Rainfall 0.00 in
Snow Depth Not available.
UV 0 out of 12
Pollen 9.10 out of 12
Air Quality Not available.
Flu Activity Not available.
METAR KGUY 230153Z AUTO 25009KT 10SM BKN070 04/M03 A2974 RMK AO2 SLP066 T00391028

More Conditions Fewer Conditions

Pressure 29.73 in
Visibility 10.0 miles
Clouds Mostly Cloudy 7000 ft
Windchill 32 °F
Dew Point 27 °F
Humidity 62%
Rainfall 0.00 in
Snow Depth Not available.
UV 0 out of 12
Pollen 9.10 out of 12
Air Quality Not available.
Flu Activity Not available.
METAR KGUY 230153Z AUTO 25009KT 10SM BKN070 04/M03 A2974 RMK AO2 SLP066 T00391028

More Conditions Fewer Conditions

Nowcast | as of 8:11 PM CST on December 22, 2014

Snow will continue to push south of the Texas Panhandle by mid evening. Hereford and bootleg will have snow through 900 PM before ending. However...more snow will be possible overnight across the western panhandles. Any additional snow will be light.

×

10-Day Weather Forecast

Almanac

Astronomy

Dec. 22, 2014 Rise Set
Actual Time
Civil Twilight
Nautical Twilight
Astronomical Twilight
Moon
Length of Visible Light
Length of Day
Tomorrow will be .
, % of the Moon is Illuminated

Today's Extremes

State Highs State Lows

Community

WunderPhotos

Upload Photos

1,779,762 photos uploaded!

WunderBlogs® & News

Nearby

Air Quality

  Air Quality AQ Index Pollutant
Not available.

Snow Depth

Station Depth Elevation

Earthquake Activity

City Distance Mag. Time & Date
Minimum magnitude displayed is 2.5.

Coastal Water Temperatures

Place Temperature

Nearby Weather Stations